Terminal Aerodrome Forecast
Issued by NWS

Home | Current Version | Previous Version | Text Only | Print | Product List | Glossary On
Versions: 1 2 3 4 5 6 7 8 9 10 11 12
000
FTUS44 KLZK 280548
TAFPBF
TAF
KPBF 280548Z 2806/2906 20007KT P6SM SCT100
     FM280800 22005KT P6SM BKN100
     FM281900 26008KT P6SM VCTS BKN050CB OVC100
     FM290100 01007KT P6SM SCT100 BKN250=

USA.gov is the U.S. government's official web portal to all federal, state and local government web resources and services.